EKAH Airport Information

Runway Information
Runway 10L Length 9111 ft width 75 ft
Elevation 79 ft Threshold 0 ft Heading 100
Runway 28R Length 9111 ft Width 75 ft
Elevation 78 ft Threshold 0 ft Heading 280
Runway 10R Length 8865 ft width 148 ft
Elevation 81 ft Threshold 0 ft Heading 100
Runway 28L Length 8865 ft Width 148 ft
Elevation 75 ft Threshold 0 ft Heading 280
Airport Frequencies
Type APP Name APP Frequency 119.275 MHZ
Type MISC Name HANDLING Frequency 130.225 MHZ
Type MISC Name AIRPORT OF Frequency 130.225 MHZ
Type TWR Name TWR Frequency 118.525 MHZ
Airport Navaids
Type NDB Name Aarhus Frequency 324 KHZ
Type NDB Name Aarhus Frequency 374 KHZ
Airport Weather Information & NOTAM
ADDS - METARS form results

(1425 UTC 24 June 2018)
 
METAR text: EKAH 241420Z AUTO 01006KT 300V040 9999NDV SCT047/// 23/12 Q1016
Conditions at: EKAH (TIRSTRUP (CIV/MI, DK) observed 1420 UTC 24 June 2018
Temperature: 23.0°C (73°F)
Dewpoint: 12.0°C (54°F) [RH = 50%]
Pressure (altimeter): 30.00 inches Hg (1016.0 mb)
Winds: from the N (10 degrees) at 7 MPH (6 knots; 3.1 m/s)
Visibility: missing
Ceiling: at least 12,000 feet AGL
Clouds: scattered clouds at 4700 feet AGL
Weather: no significant weather observed at this time

METAR text: EKAH 241350Z AUTO 34005KT 270V050 9999NDV NCD 24/11 Q1016
Conditions at: EKAH (TIRSTRUP (CIV/MI, DK) observed 1350 UTC 24 June 2018
Temperature: 24.0°C (75°F)
Dewpoint: 11.0°C (52°F) [RH = 44%]
Pressure (altimeter): 30.00 inches Hg (1016.0 mb)
Winds: from the NNW (340 degrees) at 6 MPH (5 knots; 2.6 m/s)
Visibility: missing
Ceiling: at least 12,000 feet AGL
Clouds: sky clear below 12,000 feet AGL
Weather: no significant weather observed at this time